sensor_id;sensor_type;location;lat;lon;timestamp;P1;durP1;ratioP1;P2;durP2;ratioP2
40945;SDS011;55635;50.264;11.918;2023-06-14T00:02:09;5.88;;;5.05;;
40945;SDS011;55635;50.264;11.918;2023-06-14T00:04:50;8.18;;;5.35;;
40945;SDS011;55635;50.264;11.918;2023-06-14T00:07:36;8.65;;;6.47;;
40945;SDS011;55635;50.264;11.918;2023-06-14T00:13:03;6.90;;;5.82;;
40945;SDS011;55635;50.264;11.918;2023-06-14T00:15:44;6.93;;;5.25;;
40945;SDS011;55635;50.264;11.918;2023-06-14T00:18:26;6.28;;;5.68;;
40945;SDS011;55635;50.264;11.918;2023-06-14T00:21:09;8.02;;;5.95;;
40945;SDS011;55635;50.264;11.918;2023-06-14T00:23:50;6.75;;;5.70;;
40945;SDS011;55635;50.264;11.918;2023-06-14T00:26:31;7.15;;;5.78;;
40945;SDS011;55635;50.264;11.918;2023-06-14T00:29:12;6.22;;;5.35;;
40945;SDS011;55635;50.264;11.918;2023-06-14T00:31:53;8.15;;;6.18;;
40945;SDS011;55635;50.264;11.918;2023-06-14T00:34:34;10.05;;;6.75;;
40945;SDS011;55635;50.264;11.918;2023-06-14T00:37:15;8.30;;;5.80;;
40945;SDS011;55635;50.264;11.918;2023-06-14T00:39:56;11.75;;;5.88;;
40945;SDS011;55635;50.264;11.918;2023-06-14T00:42:37;8.13;;;5.95;;
40945;SDS011;55635;50.264;11.918;2023-06-14T00:45:18;8.68;;;6.15;;
40945;SDS011;55635;50.264;11.918;2023-06-14T00:48:01;7.20;;;6.07;;
40945;SDS011;55635;50.264;11.918;2023-06-14T00:50:44;7.30;;;6.28;;
40945;SDS011;55635;50.264;11.918;2023-06-14T00:53:30;7.55;;;5.20;;
40945;SDS011;55635;50.264;11.918;2023-06-14T00:56:14;7.05;;;5.60;;
40945;SDS011;55635;50.264;11.918;2023-06-14T00:58:56;9.52;;;6.00;;
40945;SDS011;55635;50.264;11.918;2023-06-14T01:01:37;9.55;;;6.00;;
40945;SDS011;55635;50.264;11.918;2023-06-14T01:04:22;10.30;;;6.40;;
40945;SDS011;55635;50.264;11.918;2023-06-14T01:11:10;9.68;;;6.03;;
40945;SDS011;55635;50.264;11.918;2023-06-14T01:13:56;7.45;;;6.32;;
40945;SDS011;55635;50.264;11.918;2023-06-14T01:16:42;8.52;;;6.28;;
40945;SDS011;55635;50.264;11.918;2023-06-14T01:19:25;12.75;;;6.20;;
40945;SDS011;55635;50.264;11.918;2023-06-14T01:22:08;6.65;;;5.85;;
40945;SDS011;55635;50.264;11.918;2023-06-14T01:24:49;8.88;;;6.75;;
40945;SDS011;55635;50.264;11.918;2023-06-14T01:27:35;10.73;;;6.35;;
40945;SDS011;55635;50.264;11.918;2023-06-14T01:30:16;6.88;;;6.18;;
40945;SDS011;55635;50.264;11.918;2023-06-14T01:32:58;8.98;;;6.43;;
40945;SDS011;55635;50.264;11.918;2023-06-14T01:35:43;6.88;;;6.20;;
40945;SDS011;55635;50.264;11.918;2023-06-14T01:38:26;12.10;;;7.25;;
40945;SDS011;55635;50.264;11.918;2023-06-14T01:41:09;7.55;;;6.82;;
40945;SDS011;55635;50.264;11.918;2023-06-14T01:43:51;9.43;;;6.82;;
40945;SDS011;55635;50.264;11.918;2023-06-14T01:46:32;8.38;;;6.60;;
40945;SDS011;55635;50.264;11.918;2023-06-14T01:49:13;8.32;;;6.93;;
40945;SDS011;55635;50.264;11.918;2023-06-14T01:51:54;9.07;;;6.72;;
40945;SDS011;55635;50.264;11.918;2023-06-14T01:54:35;7.30;;;6.50;;
40945;SDS011;55635;50.264;11.918;2023-06-14T01:57:23;9.65;;;7.15;;
40945;SDS011;55635;50.264;11.918;2023-06-14T02:00:05;8.02;;;7.25;;
40945;SDS011;55635;50.264;11.918;2023-06-14T02:02:53;7.22;;;6.53;;
40945;SDS011;55635;50.264;11.918;2023-06-14T02:05:34;7.97;;;6.45;;
40945;SDS011;55635;50.264;11.918;2023-06-14T02:08:14;8.65;;;7.60;;
40945;SDS011;55635;50.264;11.918;2023-06-14T02:10:55;8.68;;;7.68;;
40945;SDS011;55635;50.264;11.918;2023-06-14T02:13:36;8.45;;;7.35;;
40945;SDS011;55635;50.264;11.918;2023-06-14T02:16:17;8.07;;;7.28;;
40945;SDS011;55635;50.264;11.918;2023-06-14T02:18:58;9.52;;;7.18;;
40945;SDS011;55635;50.264;11.918;2023-06-14T02:21:39;9.52;;;7.32;;
40945;SDS011;55635;50.264;11.918;2023-06-14T02:24:20;8.75;;;7.15;;
40945;SDS011;55635;50.264;11.918;2023-06-14T02:27:01;8.98;;;7.50;;
40945;SDS011;55635;50.264;11.918;2023-06-14T02:29:43;11.32;;;7.22;;
40945;SDS011;55635;50.264;11.918;2023-06-14T02:32:24;11.10;;;7.97;;
40945;SDS011;55635;50.264;11.918;2023-06-14T02:35:06;9.65;;;7.82;;
40945;SDS011;55635;50.264;11.918;2023-06-14T02:37:49;10.40;;;8.07;;
40945;SDS011;55635;50.264;11.918;2023-06-14T02:40:31;9.93;;;7.97;;
40945;SDS011;55635;50.264;11.918;2023-06-14T02:43:12;9.93;;;7.68;;
40945;SDS011;55635;50.264;11.918;2023-06-14T02:45:53;9.88;;;7.47;;
40945;SDS011;55635;50.264;11.918;2023-06-14T02:48:35;9.18;;;6.95;;
40945;SDS011;55635;50.264;11.918;2023-06-14T02:51:16;7.47;;;6.45;;
40945;SDS011;55635;50.264;11.918;2023-06-14T02:53:56;10.95;;;7.43;;
40945;SDS011;55635;50.264;11.918;2023-06-14T02:56:37;8.05;;;7.25;;
40945;SDS011;55635;50.264;11.918;2023-06-14T02:59:19;8.63;;;6.82;;
40945;SDS011;55635;50.264;11.918;2023-06-14T03:02:06;7.45;;;6.53;;
40945;SDS011;55635;50.264;11.918;2023-06-14T03:04:48;10.43;;;6.60;;
40945;SDS011;55635;50.264;11.918;2023-06-14T03:07:31;13.98;;;7.18;;
40945;SDS011;55635;50.264;11.918;2023-06-14T03:10:13;10.75;;;7.57;;
40945;SDS011;55635;50.264;11.918;2023-06-14T03:12:56;9.18;;;6.85;;
40945;SDS011;55635;50.264;11.918;2023-06-14T03:15:37;8.70;;;6.60;;
40945;SDS011;55635;50.264;11.918;2023-06-14T03:18:19;7.80;;;6.53;;
40945;SDS011;55635;50.264;11.918;2023-06-14T03:21:04;8.88;;;6.75;;
40945;SDS011;55635;50.264;11.918;2023-06-14T03:23:50;12.82;;;7.55;;
40945;SDS011;55635;50.264;11.918;2023-06-14T03:26:31;8.30;;;7.20;;
40945;SDS011;55635;50.264;11.918;2023-06-14T03:29:14;10.48;;;7.13;;
40945;SDS011;55635;50.264;11.918;2023-06-14T03:32:00;10.55;;;7.50;;
40945;SDS011;55635;50.264;11.918;2023-06-14T03:34:52;7.82;;;6.75;;
40945;SDS011;55635;50.264;11.918;2023-06-14T03:37:37;9.35;;;6.28;;
40945;SDS011;55635;50.264;11.918;2023-06-14T03:40:18;10.88;;;6.90;;
40945;SDS011;55635;50.264;11.918;2023-06-14T03:43:07;11.02;;;6.97;;
40945;SDS011;55635;50.264;11.918;2023-06-14T03:45:48;9.15;;;7.40;;
40945;SDS011;55635;50.264;11.918;2023-06-14T03:48:29;8.70;;;7.68;;
40945;SDS011;55635;50.264;11.918;2023-06-14T03:51:10;11.52;;;7.10;;
40945;SDS011;55635;50.264;11.918;2023-06-14T03:53:52;9.63;;;7.05;;
40945;SDS011;55635;50.264;11.918;2023-06-14T03:56:34;7.88;;;6.55;;
40945;SDS011;55635;50.264;11.918;2023-06-14T03:59:16;7.65;;;6.60;;
40945;SDS011;55635;50.264;11.918;2023-06-14T04:01:57;7.78;;;7.03;;
40945;SDS011;55635;50.264;11.918;2023-06-14T04:04:38;9.80;;;8.23;;
40945;SDS011;55635;50.264;11.918;2023-06-14T04:07:19;8.10;;;7.35;;
40945;SDS011;55635;50.264;11.918;2023-06-14T04:10:01;8.40;;;7.22;;
40945;SDS011;55635;50.264;11.918;2023-06-14T04:12:41;12.82;;;6.90;;
40945;SDS011;55635;50.264;11.918;2023-06-14T04:15:23;7.85;;;6.80;;
40945;SDS011;55635;50.264;11.918;2023-06-14T04:18:06;10.35;;;6.88;;
40945;SDS011;55635;50.264;11.918;2023-06-14T04:20:48;10.02;;;6.85;;
40945;SDS011;55635;50.264;11.918;2023-06-14T04:23:30;8.48;;;6.53;;
40945;SDS011;55635;50.264;11.918;2023-06-14T04:26:14;7.47;;;6.75;;
40945;SDS011;55635;50.264;11.918;2023-06-14T04:28:57;11.32;;;6.90;;
40945;SDS011;55635;50.264;11.918;2023-06-14T04:31:43;8.02;;;6.80;;
40945;SDS011;55635;50.264;11.918;2023-06-14T04:34:25;8.90;;;6.72;;
40945;SDS011;55635;50.264;11.918;2023-06-14T04:37:11;7.35;;;6.65;;
40945;SDS011;55635;50.264;11.918;2023-06-14T04:39:55;10.23;;;6.93;;
40945;SDS011;55635;50.264;11.918;2023-06-14T04:42:37;10.35;;;7.45;;
40945;SDS011;55635;50.264;11.918;2023-06-14T04:45:21;13.50;;;6.72;;
40945;SDS011;55635;50.264;11.918;2023-06-14T04:48:03;8.18;;;6.80;;
40945;SDS011;55635;50.264;11.918;2023-06-14T04:50:46;9.35;;;6.55;;
40945;SDS011;55635;50.264;11.918;2023-06-14T04:53:27;9.65;;;6.85;;
40945;SDS011;55635;50.264;11.918;2023-06-14T04:56:10;6.28;;;5.68;;
40945;SDS011;55635;50.264;11.918;2023-06-14T04:58:51;7.22;;;6.40;;
40945;SDS011;55635;50.264;11.918;2023-06-14T05:01:33;10.23;;;6.68;;
40945;SDS011;55635;50.264;11.918;2023-06-14T05:04:15;8.00;;;6.35;;
40945;SDS011;55635;50.264;11.918;2023-06-14T05:06:56;9.43;;;6.15;;
40945;SDS011;55635;50.264;11.918;2023-06-14T05:09:38;9.85;;;6.60;;
40945;SDS011;55635;50.264;11.918;2023-06-14T05:12:19;6.88;;;5.82;;
40945;SDS011;55635;50.264;11.918;2023-06-14T05:15:00;8.45;;;6.55;;
40945;SDS011;55635;50.264;11.918;2023-06-14T05:17:42;7.25;;;6.25;;
40945;SDS011;55635;50.264;11.918;2023-06-14T05:20:23;8.63;;;5.70;;
40945;SDS011;55635;50.264;11.918;2023-06-14T05:23:05;6.95;;;6.32;;
40945;SDS011;55635;50.264;11.918;2023-06-14T05:25:46;9.18;;;6.47;;
40945;SDS011;55635;50.264;11.918;2023-06-14T05:28:27;6.82;;;6.18;;
40945;SDS011;55635;50.264;11.918;2023-06-14T05:31:08;8.63;;;6.28;;
40945;SDS011;55635;50.264;11.918;2023-06-14T05:33:48;7.90;;;6.25;;
40945;SDS011;55635;50.264;11.918;2023-06-14T05:36:30;8.13;;;6.53;;
40945;SDS011;55635;50.264;11.918;2023-06-14T05:39:11;9.10;;;6.05;;
40945;SDS011;55635;50.264;11.918;2023-06-14T05:41:52;8.07;;;7.22;;
40945;SDS011;55635;50.264;11.918;2023-06-14T05:44:33;7.43;;;6.63;;
40945;SDS011;55635;50.264;11.918;2023-06-14T05:47:14;9.13;;;7.03;;
40945;SDS011;55635;50.264;11.918;2023-06-14T05:49:54;8.00;;;6.38;;
40945;SDS011;55635;50.264;11.918;2023-06-14T05:52:35;9.40;;;6.53;;
40945;SDS011;55635;50.264;11.918;2023-06-14T05:55:17;7.88;;;6.70;;
40945;SDS011;55635;50.264;11.918;2023-06-14T05:57:57;10.98;;;7.07;;
40945;SDS011;55635;50.264;11.918;2023-06-14T06:00:39;8.90;;;5.90;;
40945;SDS011;55635;50.264;11.918;2023-06-14T06:03:20;7.70;;;6.85;;
40945;SDS011;55635;50.264;11.918;2023-06-14T06:06:01;10.30;;;6.78;;
40945;SDS011;55635;50.264;11.918;2023-06-14T06:08:43;7.13;;;6.40;;
40945;SDS011;55635;50.264;11.918;2023-06-14T06:11:24;8.15;;;6.47;;
40945;SDS011;55635;50.264;11.918;2023-06-14T06:14:05;6.82;;;5.95;;
40945;SDS011;55635;50.264;11.918;2023-06-14T06:16:46;7.80;;;6.80;;
40945;SDS011;55635;50.264;11.918;2023-06-14T06:19:27;8.02;;;6.50;;
40945;SDS011;55635;50.264;11.918;2023-06-14T06:22:08;8.95;;;5.43;;
40945;SDS011;55635;50.264;11.918;2023-06-14T06:24:49;6.20;;;5.53;;
40945;SDS011;55635;50.264;11.918;2023-06-14T06:27:30;6.68;;;5.10;;
40945;SDS011;55635;50.264;11.918;2023-06-14T06:30:11;6.70;;;4.93;;
40945;SDS011;55635;50.264;11.918;2023-06-14T06:32:52;6.50;;;5.22;;
40945;SDS011;55635;50.264;11.918;2023-06-14T06:35:35;7.35;;;4.65;;
40945;SDS011;55635;50.264;11.918;2023-06-14T06:38:17;5.00;;;4.53;;
40945;SDS011;55635;50.264;11.918;2023-06-14T06:40:58;4.78;;;4.38;;
40945;SDS011;55635;50.264;11.918;2023-06-14T06:43:39;4.93;;;4.22;;
40945;SDS011;55635;50.264;11.918;2023-06-14T06:46:22;5.28;;;4.85;;
40945;SDS011;55635;50.264;11.918;2023-06-14T06:49:03;5.22;;;4.43;;
40945;SDS011;55635;50.264;11.918;2023-06-14T06:51:53;6.47;;;4.95;;
40945;SDS011;55635;50.264;11.918;2023-06-14T06:54:46;6.82;;;4.55;;
40945;SDS011;55635;50.264;11.918;2023-06-14T06:57:29;5.53;;;4.05;;
40945;SDS011;55635;50.264;11.918;2023-06-14T07:00:10;7.30;;;4.35;;
40945;SDS011;55635;50.264;11.918;2023-06-14T07:02:52;7.63;;;4.25;;
40945;SDS011;55635;50.264;11.918;2023-06-14T07:05:35;4.55;;;4.15;;
40945;SDS011;55635;50.264;11.918;2023-06-14T07:08:16;5.22;;;4.75;;
40945;SDS011;55635;50.264;11.918;2023-06-14T07:10:56;5.03;;;3.72;;
40945;SDS011;55635;50.264;11.918;2023-06-14T07:13:37;5.05;;;4.55;;
40945;SDS011;55635;50.264;11.918;2023-06-14T07:16:18;8.95;;;4.22;;
40945;SDS011;55635;50.264;11.918;2023-06-14T07:18:59;4.25;;;3.70;;
40945;SDS011;55635;50.264;11.918;2023-06-14T07:21:41;4.18;;;3.80;;
40945;SDS011;55635;50.264;11.918;2023-06-14T07:24:22;5.10;;;3.95;;
40945;SDS011;55635;50.264;11.918;2023-06-14T07:27:03;6.05;;;4.03;;
40945;SDS011;55635;50.264;11.918;2023-06-14T07:29:44;6.55;;;3.90;;
40945;SDS011;55635;50.264;11.918;2023-06-14T07:32:25;7.53;;;4.10;;
40945;SDS011;55635;50.264;11.918;2023-06-14T07:35:06;6.85;;;3.92;;
40945;SDS011;55635;50.264;11.918;2023-06-14T07:37:47;3.88;;;3.58;;
40945;SDS011;55635;50.264;11.918;2023-06-14T07:40:29;4.13;;;3.40;;
40945;SDS011;55635;50.264;11.918;2023-06-14T07:43:10;3.90;;;3.30;;
40945;SDS011;55635;50.264;11.918;2023-06-14T07:45:51;4.43;;;3.78;;
40945;SDS011;55635;50.264;11.918;2023-06-14T07:48:32;4.30;;;3.08;;
40945;SDS011;55635;50.264;11.918;2023-06-14T07:51:13;4.63;;;4.22;;
40945;SDS011;55635;50.264;11.918;2023-06-14T07:53:54;4.43;;;3.55;;
40945;SDS011;55635;50.264;11.918;2023-06-14T07:56:35;8.32;;;3.80;;
40945;SDS011;55635;50.264;11.918;2023-06-14T07:59:16;4.60;;;3.22;;
40945;SDS011;55635;50.264;11.918;2023-06-14T08:01:57;3.70;;;3.40;;
40945;SDS011;55635;50.264;11.918;2023-06-14T08:04:38;3.13;;;2.90;;
40945;SDS011;55635;50.264;11.918;2023-06-14T08:07:19;2.92;;;2.70;;
40945;SDS011;55635;50.264;11.918;2023-06-14T08:10:00;6.43;;;3.35;;
40945;SDS011;55635;50.264;11.918;2023-06-14T08:12:44;5.40;;;3.33;;
40945;SDS011;55635;50.264;11.918;2023-06-14T08:15:25;3.88;;;3.00;;
40945;SDS011;55635;50.264;11.918;2023-06-14T08:18:06;6.53;;;3.40;;
40945;SDS011;55635;50.264;11.918;2023-06-14T08:20:47;4.38;;;2.90;;
40945;SDS011;55635;50.264;11.918;2023-06-14T08:23:28;5.60;;;3.95;;
40945;SDS011;55635;50.264;11.918;2023-06-14T08:26:09;3.63;;;3.13;;
40945;SDS011;55635;50.264;11.918;2023-06-14T08:28:51;4.13;;;3.60;;
40945;SDS011;55635;50.264;11.918;2023-06-14T08:31:32;3.50;;;3.17;;
40945;SDS011;55635;50.264;11.918;2023-06-14T08:34:13;3.63;;;3.33;;
40945;SDS011;55635;50.264;11.918;2023-06-14T08:36:54;3.75;;;3.35;;
40945;SDS011;55635;50.264;11.918;2023-06-14T08:39:35;3.95;;;3.33;;
40945;SDS011;55635;50.264;11.918;2023-06-14T08:42:16;3.60;;;3.33;;
40945;SDS011;55635;50.264;11.918;2023-06-14T08:44:59;7.78;;;3.55;;
40945;SDS011;55635;50.264;11.918;2023-06-14T08:47:40;3.97;;;3.55;;
40945;SDS011;55635;50.264;11.918;2023-06-14T08:50:21;4.93;;;4.15;;
40945;SDS011;55635;50.264;11.918;2023-06-14T08:53:04;4.30;;;3.45;;
40945;SDS011;55635;50.264;11.918;2023-06-14T08:55:46;3.95;;;3.17;;
40945;SDS011;55635;50.264;11.918;2023-06-14T08:58:28;4.00;;;3.65;;
40945;SDS011;55635;50.264;11.918;2023-06-14T09:01:14;4.78;;;3.42;;
40945;SDS011;55635;50.264;11.918;2023-06-14T09:03:56;3.28;;;2.97;;
40945;SDS011;55635;50.264;11.918;2023-06-14T09:06:37;5.10;;;3.17;;
40945;SDS011;55635;50.264;11.918;2023-06-14T09:09:19;4.80;;;3.13;;
40945;SDS011;55635;50.264;11.918;2023-06-14T09:12:03;3.88;;;3.03;;
40945;SDS011;55635;50.264;11.918;2023-06-14T09:14:46;6.75;;;3.30;;
40945;SDS011;55635;50.264;11.918;2023-06-14T09:17:27;6.00;;;3.65;;
40945;SDS011;55635;50.264;11.918;2023-06-14T09:20:08;5.32;;;3.60;;
40945;SDS011;55635;50.264;11.918;2023-06-14T09:22:50;4.95;;;3.33;;
40945;SDS011;55635;50.264;11.918;2023-06-14T09:25:32;7.38;;;3.45;;
40945;SDS011;55635;50.264;11.918;2023-06-14T09:28:31;11.27;;;8.30;;
40945;SDS011;55635;50.264;11.918;2023-06-14T09:31:21;6.22;;;3.78;;
40945;SDS011;55635;50.264;11.918;2023-06-14T09:34:02;12.93;;;5.57;;
40945;SDS011;55635;50.264;11.918;2023-06-14T09:36:43;17.85;;;10.50;;
40945;SDS011;55635;50.264;11.918;2023-06-14T09:39:24;5.50;;;4.15;;
40945;SDS011;55635;50.264;11.918;2023-06-14T09:42:15;7.50;;;5.43;;
40945;SDS011;55635;50.264;11.918;2023-06-14T09:45:01;5.53;;;4.60;;
40945;SDS011;55635;50.264;11.918;2023-06-14T09:47:43;5.68;;;4.03;;
40945;SDS011;55635;50.264;11.918;2023-06-14T09:50:25;3.33;;;3.03;;
40945;SDS011;55635;50.264;11.918;2023-06-14T09:53:07;7.15;;;4.72;;
40945;SDS011;55635;50.264;11.918;2023-06-14T09:55:50;8.13;;;4.25;;
40945;SDS011;55635;50.264;11.918;2023-06-14T09:58:35;6.70;;;6.10;;
40945;SDS011;55635;50.264;11.918;2023-06-14T10:01:19;4.13;;;3.75;;
40945;SDS011;55635;50.264;11.918;2023-06-14T10:04:02;4.80;;;3.55;;
40945;SDS011;55635;50.264;11.918;2023-06-14T10:06:45;3.25;;;3.00;;
40945;SDS011;55635;50.264;11.918;2023-06-14T10:09:27;6.10;;;3.42;;
40945;SDS011;55635;50.264;11.918;2023-06-14T10:12:10;5.20;;;4.13;;
40945;SDS011;55635;50.264;11.918;2023-06-14T10:14:51;3.38;;;3.17;;
40945;SDS011;55635;50.264;11.918;2023-06-14T10:20:38;4.03;;;3.45;;
40945;SDS011;55635;50.264;11.918;2023-06-14T10:23:48;5.85;;;2.85;;
40945;SDS011;55635;50.264;11.918;2023-06-14T10:26:31;3.35;;;2.75;;
40945;SDS011;55635;50.264;11.918;2023-06-14T10:29:12;3.53;;;3.00;;
40945;SDS011;55635;50.264;11.918;2023-06-14T10:31:56;5.65;;;3.10;;
40945;SDS011;55635;50.264;11.918;2023-06-14T10:34:39;6.32;;;2.83;;
40945;SDS011;55635;50.264;11.918;2023-06-14T10:37:21;5.97;;;2.95;;
40945;SDS011;55635;50.264;11.918;2023-06-14T10:40:02;4.25;;;2.95;;
40945;SDS011;55635;50.264;11.918;2023-06-14T10:42:51;3.70;;;2.88;;
40945;SDS011;55635;50.264;11.918;2023-06-14T10:45:32;4.60;;;3.15;;
40945;SDS011;55635;50.264;11.918;2023-06-14T10:48:28;2.97;;;2.67;;
40945;SDS011;55635;50.264;11.918;2023-06-14T10:51:19;2.90;;;2.67;;
40945;SDS011;55635;50.264;11.918;2023-06-14T10:54:01;3.70;;;2.60;;
40945;SDS011;55635;50.264;11.918;2023-06-14T10:56:48;4.25;;;2.97;;
40945;SDS011;55635;50.264;11.918;2023-06-14T10:59:31;3.03;;;2.70;;
40945;SDS011;55635;50.264;11.918;2023-06-14T11:05:00;5.28;;;2.78;;
40945;SDS011;55635;50.264;11.918;2023-06-14T11:10:46;3.40;;;2.53;;
40945;SDS011;55635;50.264;11.918;2023-06-14T11:13:28;3.45;;;2.38;;
40945;SDS011;55635;50.264;11.918;2023-06-14T11:16:12;4.35;;;2.90;;
40945;SDS011;55635;50.264;11.918;2023-06-14T11:18:55;2.90;;;2.70;;
40945;SDS011;55635;50.264;11.918;2023-06-14T11:21:39;4.68;;;2.65;;
40945;SDS011;55635;50.264;11.918;2023-06-14T11:24:20;5.38;;;2.97;;
40945;SDS011;55635;50.264;11.918;2023-06-14T11:27:01;3.83;;;2.50;;
40945;SDS011;55635;50.264;11.918;2023-06-14T11:29:47;2.42;;;2.13;;
40945;SDS011;55635;50.264;11.918;2023-06-14T11:32:31;4.47;;;2.50;;
40945;SDS011;55635;50.264;11.918;2023-06-14T11:35:12;2.80;;;2.38;;
40945;SDS011;55635;50.264;11.918;2023-06-14T11:37:53;7.75;;;2.70;;
40945;SDS011;55635;50.264;11.918;2023-06-14T11:40:37;5.60;;;2.70;;
40945;SDS011;55635;50.264;11.918;2023-06-14T11:43:19;2.88;;;2.28;;
40945;SDS011;55635;50.264;11.918;2023-06-14T11:46:00;2.80;;;2.60;;
40945;SDS011;55635;50.264;11.918;2023-06-14T11:48:42;3.00;;;2.42;;
40945;SDS011;55635;50.264;11.918;2023-06-14T11:51:23;3.85;;;2.67;;
40945;SDS011;55635;50.264;11.918;2023-06-14T11:54:05;2.35;;;2.15;;
40945;SDS011;55635;50.264;11.918;2023-06-14T11:56:48;4.32;;;2.20;;
40945;SDS011;55635;50.264;11.918;2023-06-14T11:59:29;2.75;;;2.53;;
40945;SDS011;55635;50.264;11.918;2023-06-14T12:02:15;2.30;;;2.10;;
40945;SDS011;55635;50.264;11.918;2023-06-14T12:05:03;2.83;;;1.95;;
40945;SDS011;55635;50.264;11.918;2023-06-14T12:07:59;4.55;;;2.90;;
40945;SDS011;55635;50.264;11.918;2023-06-14T12:10:43;2.35;;;2.15;;
40945;SDS011;55635;50.264;11.918;2023-06-14T12:13:24;3.22;;;2.25;;
40945;SDS011;55635;50.264;11.918;2023-06-14T12:16:07;2.90;;;2.28;;
40945;SDS011;55635;50.264;11.918;2023-06-14T12:18:50;4.45;;;2.25;;
40945;SDS011;55635;50.264;11.918;2023-06-14T12:21:33;3.95;;;2.22;;
40945;SDS011;55635;50.264;11.918;2023-06-14T12:24:16;2.90;;;2.30;;
40945;SDS011;55635;50.264;11.918;2023-06-14T12:26:57;3.55;;;2.50;;
40945;SDS011;55635;50.264;11.918;2023-06-14T12:29:43;5.03;;;4.28;;
40945;SDS011;55635;50.264;11.918;2023-06-14T12:32:24;2.53;;;2.42;;
40945;SDS011;55635;50.264;11.918;2023-06-14T12:35:05;3.05;;;2.38;;
40945;SDS011;55635;50.264;11.918;2023-06-14T12:37:47;38.80;;;5.07;;
40945;SDS011;55635;50.264;11.918;2023-06-14T12:40:28;2.15;;;2.05;;
40945;SDS011;55635;50.264;11.918;2023-06-14T12:43:09;3.15;;;2.35;;
40945;SDS011;55635;50.264;11.918;2023-06-14T12:45:49;3.13;;;2.60;;
40945;SDS011;55635;50.264;11.918;2023-06-14T12:48:33;5.95;;;2.45;;
40945;SDS011;55635;50.264;11.918;2023-06-14T12:51:14;3.97;;;2.40;;
40945;SDS011;55635;50.264;11.918;2023-06-14T12:53:55;2.70;;;2.50;;
40945;SDS011;55635;50.264;11.918;2023-06-14T12:56:36;5.80;;;2.13;;
40945;SDS011;55635;50.264;11.918;2023-06-14T12:59:17;3.88;;;2.65;;
40945;SDS011;55635;50.264;11.918;2023-06-14T13:02:14;2.22;;;2.13;;
40945;SDS011;55635;50.264;11.918;2023-06-14T13:07:39;5.72;;;2.45;;
40945;SDS011;55635;50.264;11.918;2023-06-14T13:10:20;3.58;;;2.28;;
40945;SDS011;55635;50.264;11.918;2023-06-14T13:13:00;3.90;;;2.65;;
40945;SDS011;55635;50.264;11.918;2023-06-14T13:15:42;4.32;;;3.92;;
40945;SDS011;55635;50.264;11.918;2023-06-14T13:18:26;2.33;;;2.13;;
40945;SDS011;55635;50.264;11.918;2023-06-14T13:21:07;2.80;;;2.60;;
40945;SDS011;55635;50.264;11.918;2023-06-14T13:23:48;5.53;;;2.90;;
40945;SDS011;55635;50.264;11.918;2023-06-14T13:26:29;7.90;;;3.25;;
40945;SDS011;55635;50.264;11.918;2023-06-14T13:29:10;4.82;;;2.60;;
40945;SDS011;55635;50.264;11.918;2023-06-14T13:31:51;3.25;;;2.45;;
40945;SDS011;55635;50.264;11.918;2023-06-14T13:34:33;3.10;;;2.80;;
40945;SDS011;55635;50.264;11.918;2023-06-14T13:37:14;4.07;;;3.00;;
40945;SDS011;55635;50.264;11.918;2023-06-14T13:39:55;8.00;;;3.13;;
40945;SDS011;55635;50.264;11.918;2023-06-14T13:42:36;2.58;;;2.38;;
40945;SDS011;55635;50.264;11.918;2023-06-14T13:45:17;3.22;;;2.85;;
40945;SDS011;55635;50.264;11.918;2023-06-14T13:48:00;3.83;;;2.58;;
40945;SDS011;55635;50.264;11.918;2023-06-14T13:50:41;3.05;;;2.67;;
40945;SDS011;55635;50.264;11.918;2023-06-14T13:53:22;5.65;;;2.65;;
40945;SDS011;55635;50.264;11.918;2023-06-14T13:56:04;2.95;;;2.70;;
40945;SDS011;55635;50.264;11.918;2023-06-14T13:58:45;4.75;;;2.45;;
40945;SDS011;55635;50.264;11.918;2023-06-14T14:01:26;6.88;;;2.83;;
40945;SDS011;55635;50.264;11.918;2023-06-14T14:04:08;2.97;;;2.53;;
40945;SDS011;55635;50.264;11.918;2023-06-14T14:06:49;3.88;;;2.42;;
40945;SDS011;55635;50.264;11.918;2023-06-14T14:09:30;4.65;;;2.90;;
40945;SDS011;55635;50.264;11.918;2023-06-14T14:12:12;4.93;;;2.97;;
40945;SDS011;55635;50.264;11.918;2023-06-14T14:14:54;4.07;;;2.78;;
40945;SDS011;55635;50.264;11.918;2023-06-14T14:17:35;2.95;;;2.63;;
40945;SDS011;55635;50.264;11.918;2023-06-14T14:20:16;3.58;;;2.60;;
40945;SDS011;55635;50.264;11.918;2023-06-14T14:22:57;4.70;;;3.10;;
40945;SDS011;55635;50.264;11.918;2023-06-14T14:25:38;6.25;;;3.15;;
40945;SDS011;55635;50.264;11.918;2023-06-14T14:28:19;5.63;;;2.70;;
40945;SDS011;55635;50.264;11.918;2023-06-14T14:31:01;6.22;;;3.20;;
40945;SDS011;55635;50.264;11.918;2023-06-14T14:33:42;3.13;;;2.92;;
40945;SDS011;55635;50.264;11.918;2023-06-14T14:36:23;6.82;;;2.90;;
40945;SDS011;55635;50.264;11.918;2023-06-14T14:39:04;6.53;;;3.80;;
40945;SDS011;55635;50.264;11.918;2023-06-14T14:41:45;7.07;;;3.38;;
40945;SDS011;55635;50.264;11.918;2023-06-14T14:44:26;4.13;;;3.28;;
40945;SDS011;55635;50.264;11.918;2023-06-14T14:47:07;5.35;;;3.17;;
40945;SDS011;55635;50.264;11.918;2023-06-14T14:49:48;5.13;;;2.88;;
40945;SDS011;55635;50.264;11.918;2023-06-14T14:52:29;4.95;;;3.17;;
40945;SDS011;55635;50.264;11.918;2023-06-14T14:55:10;3.28;;;3.08;;
40945;SDS011;55635;50.264;11.918;2023-06-14T14:57:51;4.68;;;4.28;;
40945;SDS011;55635;50.264;11.918;2023-06-14T15:00:31;3.60;;;3.00;;
40945;SDS011;55635;50.264;11.918;2023-06-14T15:03:15;6.72;;;4.47;;
40945;SDS011;55635;50.264;11.918;2023-06-14T15:05:56;3.90;;;3.40;;
40945;SDS011;55635;50.264;11.918;2023-06-14T15:08:38;5.50;;;2.75;;
40945;SDS011;55635;50.264;11.918;2023-06-14T15:11:18;3.30;;;2.72;;
40945;SDS011;55635;50.264;11.918;2023-06-14T15:13:59;4.05;;;2.95;;
40945;SDS011;55635;50.264;11.918;2023-06-14T15:16:40;3.50;;;3.00;;
40945;SDS011;55635;50.264;11.918;2023-06-14T15:19:21;3.47;;;2.70;;
40945;SDS011;55635;50.264;11.918;2023-06-14T15:22:02;3.13;;;2.63;;
40945;SDS011;55635;50.264;11.918;2023-06-14T15:24:44;3.08;;;2.88;;
40945;SDS011;55635;50.264;11.918;2023-06-14T15:27:25;2.70;;;2.50;;
40945;SDS011;55635;50.264;11.918;2023-06-14T15:30:06;2.75;;;2.55;;
40945;SDS011;55635;50.264;11.918;2023-06-14T15:32:48;3.20;;;2.97;;
40945;SDS011;55635;50.264;11.918;2023-06-14T15:35:29;3.55;;;2.97;;
40945;SDS011;55635;50.264;11.918;2023-06-14T15:38:10;3.25;;;2.85;;
40945;SDS011;55635;50.264;11.918;2023-06-14T15:40:51;4.18;;;3.88;;
40945;SDS011;55635;50.264;11.918;2023-06-14T15:43:31;3.75;;;3.45;;
40945;SDS011;55635;50.264;11.918;2023-06-14T15:46:12;2.85;;;2.60;;
40945;SDS011;55635;50.264;11.918;2023-06-14T15:48:54;4.97;;;2.63;;
40945;SDS011;55635;50.264;11.918;2023-06-14T15:51:36;2.70;;;2.50;;
40945;SDS011;55635;50.264;11.918;2023-06-14T15:54:17;131.90;;;16.20;;
40945;SDS011;55635;50.264;11.918;2023-06-14T15:56:58;2.40;;;2.20;;
40945;SDS011;55635;50.264;11.918;2023-06-14T15:59:38;4.10;;;2.15;;
40945;SDS011;55635;50.264;11.918;2023-06-14T16:02:19;2.63;;;2.42;;
40945;SDS011;55635;50.264;11.918;2023-06-14T16:05:00;14.90;;;3.33;;
40945;SDS011;55635;50.264;11.918;2023-06-14T16:07:41;4.50;;;2.30;;
40945;SDS011;55635;50.264;11.918;2023-06-14T16:10:22;3.55;;;2.30;;
40945;SDS011;55635;50.264;11.918;2023-06-14T16:13:04;2.03;;;1.80;;
40945;SDS011;55635;50.264;11.918;2023-06-14T16:15:45;3.00;;;2.80;;
40945;SDS011;55635;50.264;11.918;2023-06-14T16:18:26;2.67;;;1.88;;
40945;SDS011;55635;50.264;11.918;2023-06-14T16:21:07;2.67;;;2.05;;